Time;durP1;ratioP1;P1;durP2;ratioP2;P2;SDS_P1;SDS_P2;PMS_P1;PMS_P2;Temp;Humidity;BMP_temperature;BMP_pressure;BME280_temperature;BME280_humidity;BME280_pressure;Samples;Min_cycle;Max_cycle;Signal;HPM_P1;HPM_P2
2022/11/27 00:00:53;;;;;;;1.08;1.08;;;15.30;93.30;;;;;;4193634;28;20054;-59
2022/11/27 00:03:35;;;;;;;2.78;0.43;;;15.30;93.40;;;;;;4176869;28;20060;-59
2022/11/27 00:06:19;;;;;;;0.00;0.00;;;15.30;93.40;;;;;;4177164;28;20047;-60
2022/11/27 00:09:02;;;;;;;0.00;0.00;;;15.20;93.40;;;;;;4176962;28;20048;-60
2022/11/27 00:11:44;;;;;;;0.08;0.08;;;15.20;93.50;;;;;;4176659;28;20063;-59
2022/11/27 00:14:25;;;;;;;0.30;0.30;;;15.20;93.50;;;;;;4176744;28;20052;-59
2022/11/27 00:17:06;;;;;;;0.05;0.05;;;15.20;93.50;;;;;;4189393;28;20493;-59
2022/11/27 00:19:48;;;;;;;0.00;0.00;;;15.20;93.50;;;;;;4176745;28;20166;-59
2022/11/27 00:22:29;;;;;;;0.00;0.00;;;15.20;93.50;;;;;;4176371;28;20521;-59
2022/11/27 00:25:10;;;;;;;0.00;0.00;;;15.10;93.50;;;;;;4179527;28;20060;-59
2022/11/27 00:27:51;;;;;;;0.00;0.00;;;15.10;93.60;;;;;;4209820;28;20090;-59
2022/11/27 00:30:32;;;;;;;0.40;0.40;;;15.10;93.50;;;;;;4209603;28;20609;-60
2022/11/27 00:33:13;;;;;;;0.00;0.00;;;15.10;94.00;;;;;;4209123;28;20050;-59
2022/11/27 00:35:55;;;;;;;0.00;0.00;;;15.10;94.00;;;;;;4206382;28;20186;-60
2022/11/27 00:38:37;;;;;;;0.28;0.28;;;15.10;94.10;;;;;;4192348;28;20051;-60
2022/11/27 00:41:21;;;;;;;0.00;0.00;;;15.10;93.70;;;;;;4191128;28;20047;-59
2022/11/27 00:44:01;;;;;;;0.00;0.00;;;15.00;93.70;;;;;;4192600;28;20166;-60
2022/11/27 00:46:42;;;;;;;0.00;0.00;;;15.00;93.50;;;;;;4192771;28;20078;-60
2022/11/27 00:49:23;;;;;;;0.00;0.00;;;15.00;93.70;;;;;;4192560;28;20063;-60
2022/11/27 00:52:05;;;;;;;0.00;0.00;;;15.00;93.80;;;;;;4207666;28;20071;-60
2022/11/27 00:54:46;;;;;;;0.30;0.30;;;15.00;93.80;;;;;;4208320;28;20159;-59
2022/11/27 00:57:27;;;;;;;0.10;0.10;;;15.00;93.80;;;;;;4209307;28;20149;-58
2022/11/27 01:00:10;;;;;;;0.00;0.00;;;15.00;93.80;;;;;;4209225;27;20063;-59
2022/11/27 01:02:51;;;;;;;0.13;0.05;;;14.90;93.80;;;;;;4208910;28;20055;-59
2022/11/27 01:05:32;;;;;;;0.10;0.10;;;14.90;93.90;;;;;;4175010;28;20052;-59
2022/11/27 01:08:14;;;;;;;0.00;0.00;;;14.90;93.90;;;;;;4208222;28;20046;-59
2022/11/27 01:10:57;;;;;;;0.00;0.00;;;14.90;93.90;;;;;;4194199;28;20565;-59
2022/11/27 01:13:37;;;;;;;0.00;0.00;;;14.90;94.00;;;;;;4193451;28;20052;-59
2022/11/27 01:16:21;;;;;;;0.10;0.10;;;14.90;94.00;;;;;;4182691;28;20054;-59
2022/11/27 01:19:02;;;;;;;0.00;0.00;;;14.90;94.00;;;;;;4208764;28;20055;-59
2022/11/27 01:21:43;;;;;;;0.30;0.30;;;14.90;94.00;;;;;;4209127;28;20059;-59
2022/11/27 01:24:26;;;;;;;;;;;14.80;94.00;;;;;;4193768;28;20051;-59
2022/11/27 01:27:06;;;;;;;;;;;14.80;94.00;;;;;;4192655;28;19935;-59
2022/11/27 01:29:47;;;;;;;0.00;0.00;;;14.80;94.00;;;;;;4191913;28;19974;-59
2022/11/27 01:32:28;;;;;;;0.00;0.00;;;14.80;94.00;;;;;;4190997;28;20387;-59
2022/11/27 01:35:09;;;;;;;0.00;0.00;;;14.80;94.40;;;;;;4205211;28;20058;-59
2022/11/27 01:37:50;;;;;;;0.00;0.00;;;14.90;94.50;;;;;;4208518;28;20075;-59
2022/11/27 01:40:32;;;;;;;0.00;0.00;;;15.00;94.40;;;;;;4189991;28;20170;-59
2022/11/27 01:43:15;;;;;;;0.10;0.10;;;15.00;94.20;;;;;;4186051;28;20052;-59
2022/11/27 01:45:55;;;;;;;0.00;0.00;;;15.10;94.10;;;;;;4175768;28;20387;-58
2022/11/27 01:48:36;;;;;;;3.15;2.65;;;15.10;94.10;;;;;;4175361;28;20133;-58
2022/11/27 01:51:18;;;;;;;0.10;0.10;;;15.20;93.90;;;;;;4175305;28;20134;-59
2022/11/27 01:53:59;;;;;;;;;;;15.20;93.90;;;;;;4175602;28;20055;-59
2022/11/27 01:56:43;;;;;;;0.00;0.00;;;15.20;93.90;;;;;;4190806;28;19976;-59
2022/11/27 01:59:25;;;;;;;0.10;0.10;;;15.20;93.90;;;;;;4190187;28;20055;-59
2022/11/27 02:02:06;;;;;;;0.32;0.32;;;15.20;94.00;;;;;;4196912;28;20044;-59
2022/11/27 02:04:47;;;;;;;0.00;0.00;;;15.30;93.80;;;;;;4191497;28;20082;-58
2022/11/27 02:07:28;;;;;;;0.65;0.65;;;15.40;93.50;;;;;;4191545;28;20048;-59
2022/11/27 02:10:09;;;;;;;0.00;0.00;;;15.40;93.30;;;;;;4191325;28;20051;-58
2022/11/27 02:12:56;;;;;;;0.00;0.00;;;15.50;93.20;;;;;;4188622;28;20058;-59
2022/11/27 02:15:44;;;;;;;0.00;0.00;;;15.50;93.10;;;;;;4191452;28;20047;-59
2022/11/27 02:18:31;;;;;;;0.00;0.00;;;15.50;93.00;;;;;;4191655;28;20376;-59
2022/11/27 02:21:19;;;;;;;0.00;0.00;;;15.50;93.00;;;;;;4190237;28;20098;-59
2022/11/27 02:24:33;;;;;;;0.00;0.00;;;15.50;93.10;;;;;;4178825;28;20071;-59
2022/11/27 02:27:43;;;;;;;0.00;0.00;;;15.50;93.10;;;;;;4191445;28;20194;-59
2022/11/27 02:30:25;;;;;;;0.00;0.00;;;15.50;93.20;;;;;;4193158;28;20055;-59
2022/11/27 02:33:11;;;;;;;0.00;0.00;;;15.60;93.00;;;;;;4206296;28;20119;-59
2022/11/27 02:35:56;;;;;;;0.00;0.00;;;15.60;92.80;;;;;;4208831;28;20065;-59
2022/11/27 02:38:41;;;;;;;0.00;0.00;;;15.70;92.60;;;;;;4210976;28;20055;-59
2022/11/27 02:41:26;;;;;;;0.03;0.03;;;15.80;92.40;;;;;;4178288;28;20507;-60
2022/11/27 02:44:09;;;;;;;1.30;1.20;;;15.80;92.30;;;;;;4183811;28;20186;-59
2022/11/27 02:46:52;;;;;;;0.00;0.00;;;15.80;92.20;;;;;;4194198;28;20050;-59
2022/11/27 02:49:35;;;;;;;0.00;0.00;;;15.80;92.20;;;;;;4204396;28;20047;-59
2022/11/27 02:52:19;;;;;;;0.00;0.00;;;15.80;92.60;;;;;;4177936;28;20496;-59
2022/11/27 02:55:05;;;;;;;0.00;0.00;;;15.80;92.30;;;;;;4176664;28;20063;-59
2022/11/27 02:57:46;;;;;;;0.00;0.00;;;15.80;92.30;;;;;;4178121;28;20107;-59
2022/11/27 03:00:27;;;;;;;0.00;0.00;;;15.80;92.20;;;;;;4177537;28;20052;-59
2022/11/27 03:03:12;;;;;;;0.00;0.00;;;15.90;92.10;;;;;;4176441;28;20055;-59
2022/11/27 03:05:58;;;;;;;0.00;0.00;;;15.90;92.10;;;;;;4177448;28;20474;-59
2022/11/27 03:08:43;;;;;;;0.00;0.00;;;15.90;92.00;;;;;;4182260;28;20062;-61
2022/11/27 03:11:24;;;;;;;0.00;0.00;;;16.00;92.00;;;;;;4193920;28;20051;-59
2022/11/27 03:14:07;;;;;;;1.35;0.90;;;16.00;91.90;;;;;;4194218;28;20137;-59
2022/11/27 03:17:00;;;;;;;1.55;0.80;;;16.00;91.80;;;;;;4193322;28;20062;-59
2022/11/27 03:19:47;;;;;;;0.00;0.00;;;16.10;91.70;;;;;;4202617;28;20059;-59
2022/11/27 03:22:30;;;;;;;0.10;0.10;;;16.10;91.60;;;;;;4210764;28;20458;-58
2022/11/27 03:25:11;;;;;;;0.00;0.00;;;16.10;91.60;;;;;;4210809;28;20173;-59
2022/11/27 03:27:58;;;;;;;0.65;0.65;;;16.10;91.50;;;;;;4210123;28;20063;-58
2022/11/27 03:30:41;;;;;;;0.00;0.00;;;16.00;91.60;;;;;;4210543;28;20105;-59
2022/11/27 03:33:22;;;;;;;1.27;0.30;;;16.00;91.60;;;;;;4210963;28;20055;-59
2022/11/27 03:36:11;;;;;;;0.35;0.35;;;16.00;91.70;;;;;;4209952;28;20066;-59
2022/11/27 03:38:54;;;;;;;0.00;0.00;;;15.90;91.80;;;;;;4177303;28;20388;-59
2022/11/27 03:41:44;;;;;;;0.00;0.00;;;16.00;91.70;;;;;;4177828;28;20135;-59
2022/11/27 03:44:33;;;;;;;0.30;0.30;;;16.00;91.60;;;;;;4177398;28;20059;-59
2022/11/27 03:47:23;;;;;;;0.00;0.00;;;16.10;91.50;;;;;;4190488;28;20055;-59
2022/11/27 03:50:17;;;;;;;0.63;0.63;;;16.10;91.50;;;;;;4210089;28;20059;-59
2022/11/27 03:53:08;;;;;;;0.00;0.00;;;16.10;91.50;;;;;;4201848;28;20050;-59
2022/11/27 03:55:54;;;;;;;0.00;0.00;;;16.00;91.50;;;;;;4198951;28;20411;-59
2022/11/27 03:58:38;;;;;;;0.00;0.00;;;16.00;91.50;;;;;;4193644;28;20181;-59
2022/11/27 04:01:22;;;;;;;0.68;0.68;;;16.00;91.70;;;;;;4193488;28;20182;-59
2022/11/27 04:04:03;;;;;;;0.75;0.75;;;16.00;91.70;;;;;;4193410;28;20055;-59
2022/11/27 04:06:44;;;;;;;0.00;0.00;;;16.00;91.60;;;;;;4199128;28;20056;-59
2022/11/27 04:09:26;;;;;;;0.00;0.00;;;16.00;91.50;;;;;;4207287;28;20055;-59
2022/11/27 04:12:07;;;;;;;0.52;0.52;;;16.00;91.50;;;;;;4193330;28;20286;-59
2022/11/27 04:14:48;;;;;;;1.13;1.13;;;16.00;91.50;;;;;;4194866;28;20118;-59
2022/11/27 04:17:29;;;;;;;0.80;0.80;;;15.90;91.50;;;;;;4209279;28;20509;-59
2022/11/27 04:20:13;;;;;;;0.10;0.10;;;15.90;91.60;;;;;;4209841;28;20120;-59
2022/11/27 04:22:54;;;;;;;0.00;0.00;;;15.90;91.70;;;;;;4209766;28;20098;-59
2022/11/27 04:25:36;;;;;;;0.00;0.00;;;15.90;91.70;;;;;;4198303;28;20055;-59
2022/11/27 04:28:17;;;;;;;0.20;0.20;;;15.90;91.60;;;;;;4209125;28;20055;-59
2022/11/27 04:30:58;;;;;;;0.00;0.00;;;16.00;91.50;;;;;;4176127;28;20055;-59
2022/11/27 04:33:39;;;;;;;0.00;0.00;;;16.00;91.40;;;;;;4175188;28;20183;-59
2022/11/27 04:36:20;;;;;;;0.00;0.00;;;16.00;91.40;;;;;;4209291;28;20166;-59
2022/11/27 04:39:01;;;;;;;0.10;0.10;;;16.00;91.40;;;;;;4209461;28;20129;-59
2022/11/27 04:41:43;;;;;;;0.00;0.00;;;16.00;91.30;;;;;;4159836;28;20206;-59
2022/11/27 04:44:24;;;;;;;0.38;0.38;;;16.00;91.40;;;;;;4165593;28;20118;-59
2022/11/27 04:47:05;;;;;;;7.30;2.63;;;16.00;91.30;;;;;;4159583;28;20056;-58
2022/11/27 04:49:46;;;;;;;1.65;0.80;;;16.00;91.40;;;;;;4159271;28;20404;-58
2022/11/27 04:52:27;;;;;;;1.50;1.45;;;16.00;91.50;;;;;;4159315;28;20180;-59
2022/11/27 04:55:10;;;;;;;0.00;0.00;;;16.00;91.40;;;;;;4168483;28;20124;-58
2022/11/27 04:57:52;;;;;;;0.00;0.00;;;16.10;91.30;;;;;;4189466;28;20075;-59
2022/11/27 05:00:33;;;;;;;0.00;0.00;;;16.10;91.30;;;;;;4157732;28;20048;-58
2022/11/27 05:03:13;;;;;;;0.20;0.20;;;16.10;91.30;;;;;;4159798;28;20071;-58
2022/11/27 05:05:56;;;;;;;0.00;0.00;;;16.10;91.30;;;;;;4159596;28;20416;-58
2022/11/27 05:08:37;;;;;;;0.10;0.10;;;16.10;91.30;;;;;;4174683;28;20263;-58
2022/11/27 05:11:17;;;;;;;0.15;0.15;;;16.00;91.30;;;;;;4175781;28;20142;-59
2022/11/27 05:14:15;;;;;;;0.00;0.00;;;16.00;91.40;;;;;;4162179;28;20052;-59
2022/11/27 05:16:59;;;;;;;1.27;0.90;;;16.00;91.40;;;;;;4166905;28;20056;-59
2022/11/27 05:19:39;;;;;;;0.00;0.00;;;16.00;91.40;;;;;;4175621;28;20118;-59
2022/11/27 05:22:20;;;;;;;0.00;0.00;;;16.00;91.40;;;;;;4192125;28;20060;-59
2022/11/27 05:25:01;;;;;;;0.10;0.10;;;16.00;91.30;;;;;;4204675;28;20093;-61
2022/11/27 05:27:42;;;;;;;0.00;0.00;;;16.00;91.40;;;;;;4208913;28;20403;-61
2022/11/27 05:30:24;;;;;;;0.60;0.25;;;16.10;91.50;;;;;;4207820;28;20517;-61
2022/11/27 05:33:06;;;;;;;0.15;0.15;;;16.10;91.30;;;;;;4207880;28;20190;-61
2022/11/27 05:35:47;;;;;;;0.10;0.10;;;16.10;91.30;;;;;;4208371;28;20082;-61
2022/11/27 05:38:28;;;;;;;0.57;0.57;;;16.10;91.30;;;;;;4208615;28;20406;-60
2022/11/27 05:41:09;;;;;;;0.00;0.00;;;16.10;91.20;;;;;;4191950;28;20051;-60
2022/11/27 05:43:50;;;;;;;0.00;0.00;;;16.10;91.20;;;;;;4191541;28;20055;-60
2022/11/27 05:46:32;;;;;;;0.07;0.07;;;16.10;91.30;;;;;;4192602;28;20051;-60
2022/11/27 05:49:15;;;;;;;2.13;1.70;;;16.10;91.20;;;;;;4174953;28;20187;-60
2022/11/27 05:51:56;;;;;;;0.35;0.35;;;16.10;91.20;;;;;;4175674;28;20102;-59
2022/11/27 05:54:37;;;;;;;0.38;0.38;;;16.10;91.10;;;;;;4175351;28;20130;-60
2022/11/27 05:57:18;;;;;;;0.00;0.00;;;16.10;91.20;;;;;;4175087;28;20048;-60
2022/11/27 05:59:59;;;;;;;0.00;0.00;;;16.10;91.20;;;;;;4174837;28;20047;-60
2022/11/27 06:02:41;;;;;;;0.00;0.00;;;16.00;91.20;;;;;;4191235;28;20074;-60
2022/11/27 06:05:23;;;;;;;0.00;0.00;;;16.00;91.20;;;;;;4194860;28;20047;-60
2022/11/27 06:08:04;;;;;;;0.00;0.00;;;16.00;91.30;;;;;;4206565;28;20055;-60
2022/11/27 06:10:44;;;;;;;0.00;0.00;;;16.00;91.40;;;;;;4194600;28;20067;-60
2022/11/27 06:13:25;;;;;;;0.00;0.00;;;16.00;91.40;;;;;;4191846;28;20121;-60
2022/11/27 06:16:08;;;;;;;0.15;0.15;;;16.10;91.30;;;;;;4191559;28;20059;-60
2022/11/27 06:18:51;;;;;;;5.13;2.28;;;16.10;91.20;;;;;;4193724;28;20503;-60
2022/11/27 06:21:32;;;;;;;0.00;0.00;;;16.10;91.10;;;;;;4207379;28;20054;-60
2022/11/27 06:24:13;;;;;;;0.00;0.00;;;16.20;91.00;;;;;;4208234;28;20109;-61
2022/11/27 06:26:54;;;;;;;0.32;0.32;;;16.30;90.80;;;;;;4208135;28;20062;-60
2022/11/27 06:29:36;;;;;;;0.00;0.00;;;16.30;90.70;;;;;;4208197;28;20453;-60
2022/11/27 06:32:17;;;;;;;0.65;0.43;;;16.30;90.60;;;;;;4206387;28;20158;-59
2022/11/27 06:34:59;;;;;;;0.00;0.00;;;16.30;90.60;;;;;;4208100;28;20148;-59
2022/11/27 06:37:40;;;;;;;0.00;0.00;;;16.40;90.60;;;;;;4208035;28;20150;-58
2022/11/27 06:40:21;;;;;;;0.00;0.00;;;16.40;90.50;;;;;;4198348;28;20177;-58
2022/11/27 06:43:02;;;;;;;0.00;0.00;;;16.40;90.40;;;;;;4204696;28;20153;-58
2022/11/27 06:45:43;;;;;;;0.00;0.00;;;16.40;90.80;;;;;;4197954;28;20126;-58
2022/11/27 06:48:24;;;;;;;0.55;0.55;;;16.40;90.30;;;;;;4191212;28;20059;-59
2022/11/27 06:51:08;;;;;;;0.10;0.10;;;16.50;90.20;;;;;;4190518;28;20565;-58
2022/11/27 06:53:49;;;;;;;0.35;0.35;;;16.50;90.40;;;;;;4184618;28;20163;-58
2022/11/27 06:56:31;;;;;;;0.00;0.00;;;16.50;90.50;;;;;;4174490;28;20503;-58
2022/11/27 06:59:14;;;;;;;0.05;0.05;;;16.50;90.50;;;;;;4174810;28;20183;-58
2022/11/27 07:01:55;;;;;;;0.00;0.00;;;16.50;90.50;;;;;;4196357;28;20059;-59
2022/11/27 07:04:36;;;;;;;0.00;0.00;;;16.40;90.90;;;;;;4193440;27;20059;-58
2022/11/27 07:07:18;;;;;;;;;;;16.40;90.60;;;;;;4208475;27;20049;-58
2022/11/27 07:10:00;;;;;;;0.10;0.10;;;16.30;91.00;;;;;;4191456;27;19931;-58
2022/11/27 07:12:41;;;;;;;0.00;0.00;;;16.30;90.60;;;;;;4157489;28;20507;-58
2022/11/27 07:15:22;;;;;;;0.00;0.00;;;16.30;90.70;;;;;;4174593;28;20102;-58
2022/11/27 07:18:03;;;;;;;0.00;0.00;;;16.30;90.70;;;;;;4182560;28;20077;-58
2022/11/27 07:20:50;;;;;;;0.10;0.10;;;16.20;90.70;;;;;;4190626;28;20059;-58
2022/11/27 07:23:38;;;;;;;0.15;0.15;;;16.20;90.80;;;;;;4192167;28;20064;-58
2022/11/27 07:26:21;;;;;;;0.00;0.00;;;16.10;91.00;;;;;;4193141;28;20051;-58
2022/11/27 07:29:02;;;;;;;0.00;0.00;;;16.10;91.10;;;;;;4206486;28;20062;-58
2022/11/27 07:31:43;;;;;;;0.10;0.10;;;16.00;91.30;;;;;;4199894;28;20810;-58
2022/11/27 07:34:24;;;;;;;0.00;0.00;;;16.00;91.30;;;;;;4192628;28;20047;-58
2022/11/27 07:37:05;;;;;;;0.00;0.00;;;16.10;91.20;;;;;;4194163;28;20047;-58
2022/11/27 07:39:47;;;;;;;0.00;0.00;;;16.10;91.00;;;;;;4194011;28;20051;-58
2022/11/27 07:42:42;;;;;;;0.38;0.38;;;16.20;90.80;;;;;;4193413;28;20051;-58
2022/11/27 07:45:22;;;;;;;0.00;0.00;;;16.20;90.20;;;;;;4193759;28;20491;-58
2022/11/27 07:48:04;;;;;;;0.13;0.13;;;16.30;89.30;;;;;;4195738;28;20043;-59
2022/11/27 07:50:45;;;;;;;0.20;0.20;;;16.30;87.40;;;;;;4210002;28;20090;-59
2022/11/27 07:53:26;;;;;;;2.58;2.28;;;16.40;86.80;;;;;;4210067;28;20184;-60
2022/11/27 07:56:10;;;;;;;0.00;0.00;;;16.50;85.30;;;;;;4207452;28;20043;-58
2022/11/27 07:58:51;;;;;;;0.00;0.00;;;16.50;84.90;;;;;;4176838;28;20055;-60
2022/11/27 08:01:32;;;;;;;0.10;0.10;;;16.40;84.00;;;;;;4173296;28;20400;-61
2022/11/27 08:04:13;;;;;;;0.10;0.10;;;16.30;84.00;;;;;;4176635;28;20445;-58
2022/11/27 08:06:54;;;;;;;0.00;0.00;;;16.30;84.00;;;;;;4183888;28;20506;-58
2022/11/27 08:09:36;;;;;;;0.00;0.00;;;16.40;83.30;;;;;;4178326;28;20518;-58
2022/11/27 08:12:19;;;;;;;0.00;0.00;;;16.40;82.70;;;;;;4157885;28;20072;-58
2022/11/27 08:15:00;;;;;;;0.00;0.00;;;16.40;82.10;;;;;;4157971;28;20531;-57
2022/11/27 08:17:41;;;;;;;0.00;0.00;;;16.40;81.80;;;;;;4164243;28;20056;-58
2022/11/27 08:20:23;;;;;;;0.00;0.00;;;16.40;81.30;;;;;;4159993;28;20072;-58
2022/11/27 08:23:03;;;;;;;1.02;1.02;;;16.40;81.10;;;;;;4174081;28;20060;-58
2022/11/27 08:25:44;;;;;;;0.20;0.20;;;16.30;80.60;;;;;;4158035;28;20099;-58
2022/11/27 08:28:27;;;;;;;0.10;0.10;;;16.40;80.30;;;;;;4174959;28;20231;-58
2022/11/27 08:31:10;;;;;;;0.00;0.00;;;16.40;79.90;;;;;;4174342;28;20068;-56
2022/11/27 08:33:51;;;;;;;0.00;0.00;;;16.40;79.80;;;;;;4189306;28;20124;-58
2022/11/27 08:36:32;;;;;;;0.00;0.00;;;16.40;79.50;;;;;;4186821;28;20397;-58
2022/11/27 08:39:12;;;;;;;0.77;0.77;;;16.30;79.60;;;;;;4180328;28;20114;-58
2022/11/27 08:41:54;;;;;;;0.00;0.00;;;16.20;79.70;;;;;;4189684;28;20105;-58
2022/11/27 08:44:36;;;;;;;0.10;0.10;;;16.30;79.20;;;;;;4184819;28;20048;-58
2022/11/27 08:47:17;;;;;;;2.17;1.45;;;16.30;78.90;;;;;;4181902;28;20048;-58
2022/11/27 08:49:58;;;;;;;0.10;0.10;;;16.20;78.20;;;;;;4176524;28;20066;-58
2022/11/27 08:52:39;;;;;;;4.18;3.40;;;16.20;78.20;;;;;;4173290;28;20139;-58
2022/11/27 08:55:20;;;;;;;1.20;1.20;;;16.20;78.60;;;;;;4172924;28;20522;-56
2022/11/27 08:58:02;;;;;;;1.08;1.08;;;16.20;78.70;;;;;;4174289;28;20213;-58
2022/11/27 09:00:45;;;;;;;0.00;0.00;;;16.20;78.20;;;;;;4189442;28;20093;-58
2022/11/27 09:03:26;;;;;;;0.10;0.10;;;16.20;77.70;;;;;;4172971;28;20190;-59
2022/11/27 09:06:09;;;;;;;0.00;0.00;;;16.30;77.70;;;;;;4182361;28;20196;-59
2022/11/27 09:08:50;;;;;;;0.00;0.00;;;16.30;77.30;;;;;;4177965;28;20067;-58
2022/11/27 09:11:32;;;;;;;0.45;0.45;;;16.20;77.30;;;;;;4179073;28;20056;-58
2022/11/27 09:14:13;;;;;;;0.00;0.00;;;16.20;77.20;;;;;;4174641;28;20052;-59
2022/11/27 09:16:55;;;;;;;0.00;0.00;;;16.10;77.30;;;;;;4178676;28;21010;-56
2022/11/27 09:19:37;;;;;;;0.00;0.00;;;16.00;77.50;;;;;;4179824;28;20052;-55
2022/11/27 09:22:18;;;;;;;0.00;0.00;;;15.90;78.40;;;;;;4182176;28;20052;-55
2022/11/27 09:24:59;;;;;;;0.10;0.10;;;15.90;78.10;;;;;;4182838;28;20197;-59
2022/11/27 09:27:40;;;;;;;0.00;0.00;;;15.80;78.20;;;;;;4181296;28;20059;-58
2022/11/27 09:30:21;;;;;;;0.08;0.08;;;15.70;78.20;;;;;;4173138;28;20499;-58
2022/11/27 09:33:04;;;;;;;0.00;0.00;;;15.60;78.40;;;;;;4173414;28;20052;-58
2022/11/27 09:35:45;;;;;;;0.00;0.00;;;15.50;78.50;;;;;;4177107;28;20124;-59
2022/11/27 09:38:26;;;;;;;0.00;0.00;;;15.50;79.10;;;;;;4173958;28;20179;-59
2022/11/27 09:41:28;;;;;;;0.00;0.00;;;15.70;78.50;;;;;;4177181;28;20039;-59
2022/11/27 09:44:22;;;;;;;0.00;0.00;;;16.10;77.30;;;;;;4175579;28;20499;-59
2022/11/27 09:47:12;;;;;;;0.00;0.00;;;16.50;75.30;;;;;;4172538;28;20478;-59
2022/11/27 09:50:00;;;;;;;0.00;0.00;;;17.00;73.30;;;;;;4185574;28;20185;-59
2022/11/27 09:52:46;;;;;;;0.00;0.00;;;17.50;71.20;;;;;;4170900;28;20380;-58
2022/11/27 09:55:33;;;;;;;0.00;0.00;;;18.00;69.10;;;;;;4174025;28;20058;-59
2022/11/27 09:58:18;;;;;;;0.00;0.00;;;18.40;67.20;;;;;;4178559;28;20055;-60
2022/11/27 10:00:59;;;;;;;0.00;0.00;;;18.70;65.70;;;;;;4182110;28;20048;-60
2022/11/27 10:03:42;;;;;;;0.00;0.00;;;19.00;64.40;;;;;;4182341;28;20052;-59
2022/11/27 10:06:31;;;;;;;0.00;0.00;;;19.30;63.40;;;;;;4174625;28;20270;-59
2022/11/27 10:09:21;;;;;;;0.30;0.30;;;19.50;62.80;;;;;;4183034;28;20056;-59
2022/11/27 10:12:13;;;;;;;0.47;0.47;;;19.70;61.90;;;;;;4173947;28;20051;-59
2022/11/27 10:14:58;;;;;;;;;;;19.80;61.60;;;;;;4179978;28;20064;-59
2022/11/27 10:17:42;;;;;;;0.00;0.00;;;19.80;61.40;;;;;;4189046;28;20382;-60
2022/11/27 10:20:30;;;;;;;0.00;0.00;;;19.70;61.60;;;;;;4177385;28;20052;-60
2022/11/27 10:23:24;;;;;;;0.00;0.00;;;19.50;62.00;;;;;;4182793;28;20067;-59
2022/11/27 10:26:11;;;;;;;1.00;0.90;;;19.40;62.40;;;;;;4175765;28;20567;-59
2022/11/27 10:29:00;;;;;;;0.15;0.15;;;19.20;62.90;;;;;;4169943;28;20052;-61
2022/11/27 10:31:48;;;;;;;0.22;0.22;;;19.20;63.10;;;;;;4181153;28;20643;-59
2022/11/27 10:34:37;;;;;;;0.00;0.00;;;19.10;63.00;;;;;;4176540;28;20348;-60
2022/11/27 10:37:24;;;;;;;0.10;0.10;;;19.10;63.30;;;;;;4173344;28;20059;-60
2022/11/27 10:40:16;;;;;;;0.00;0.00;;;19.10;63.30;;;;;;4173542;28;20059;-60
2022/11/27 10:43:05;;;;;;;0.00;0.00;;;19.10;63.30;;;;;;4188026;28;20071;-58
2022/11/27 10:45:49;;;;;;;0.00;0.00;;;19.10;63.00;;;;;;4173178;28;20059;-59
2022/11/27 10:48:32;;;;;;;0.30;0.30;;;19.10;63.70;;;;;;4172269;28;20056;-59
2022/11/27 10:51:17;;;;;;;0.15;0.15;;;19.10;63.00;;;;;;4173890;28;20472;-59
2022/11/27 10:54:00;;;;;;;0.00;0.00;;;19.20;63.10;;;;;;4172470;28;20404;-58
2022/11/27 10:57:00;;;;;;;0.00;0.00;;;19.20;62.70;;;;;;4172565;28;20118;-59
2022/11/27 10:59:48;;;;;;;0.00;0.00;;;19.20;62.80;;;;;;4182792;28;20284;-59
2022/11/27 11:02:32;;;;;;;2.75;2.55;;;19.20;62.60;;;;;;4177173;28;20064;-60
2022/11/27 11:05:21;;;;;;;0.05;0.05;;;19.20;62.60;;;;;;4175824;28;20056;-60
2022/11/27 11:08:24;;;;;;;9.43;3.75;;;19.20;62.50;;;;;;4175184;28;20060;-60
2022/11/27 11:11:07;;;;;;;0.20;0.20;;;19.20;62.50;;;;;;4175250;28;20055;-60
2022/11/27 11:13:49;;;;;;;0.00;0.00;;;19.20;62.40;;;;;;4189458;28;20063;-59
2022/11/27 11:16:30;;;;;;;0.30;0.30;;;19.10;62.40;;;;;;4177582;28;20098;-60
2022/11/27 11:19:28;;;;;;;0.00;0.00;;;19.10;62.20;;;;;;4182591;28;20052;-59
2022/11/27 11:22:14;;;;;;;0.47;0.47;;;19.10;61.90;;;;;;4178782;28;20055;-59
2022/11/27 11:24:55;;;;;;;0.80;0.80;;;19.10;61.80;;;;;;4174443;28;20488;-58
2022/11/27 11:27:36;;;;;;;0.05;0.05;;;19.20;62.10;;;;;;4191212;28;20421;-60
2022/11/27 11:30:25;;;;;;;0.35;0.35;;;19.20;62.10;;;;;;4191214;28;20186;-59
2022/11/27 11:33:11;;;;;;;0.40;0.40;;;19.30;61.60;;;;;;4159907;28;20057;-60
2022/11/27 11:35:54;;;;;;;0.52;0.52;;;19.30;61.60;;;;;;4171630;28;20083;-59
2022/11/27 11:38:36;;;;;;;0.00;0.00;;;19.20;61.40;;;;;;4166832;28;20056;-59
2022/11/27 11:41:18;;;;;;;0.00;0.00;;;19.20;61.70;;;;;;4158644;28;20061;-59
2022/11/27 11:44:00;;;;;;;0.00;0.00;;;19.10;61.60;;;;;;4158858;28;20532;-59
2022/11/27 11:46:52;;;;;;;0.17;0.17;;;19.00;62.00;;;;;;4158368;28;20052;-59
2022/11/27 11:49:34;;;;;;;0.32;0.32;;;18.90;62.40;;;;;;4160525;28;20056;-59
2022/11/27 11:52:27;;;;;;;0.28;0.28;;;18.90;62.40;;;;;;4158767;28;20048;-59
2022/11/27 11:55:17;;;;;;;0.00;0.00;;;18.90;62.70;;;;;;4166801;28;20820;-59
2022/11/27 11:58:42;;;;;;;0.20;0.20;;;18.90;62.90;;;;;;4164293;28;20518;-60
2022/11/27 12:01:52;;;;;;;0.22;0.22;;;18.90;63.00;;;;;;4157366;28;20134;-61
2022/11/27 12:04:58;;;;;;;0.00;0.00;;;18.90;63.00;;;;;;4170290;28;20056;-59
2022/11/27 12:07:53;;;;;;;0.75;0.75;;;18.90;64.50;;;;;;4174970;28;20059;-58
2022/11/27 12:10:45;;;;;;;0.00;0.00;;;19.00;64.90;;;;;;4172470;28;20056;-59
2022/11/27 12:13:42;;;;;;;0.30;0.30;;;19.10;65.30;;;;;;4174768;28;20059;-59
2022/11/27 12:16:34;;;;;;;0.00;0.00;;;19.10;66.50;;;;;;4183297;28;20348;-59
2022/11/27 12:19:46;;;;;;;0.45;0.45;;;19.20;65.70;;;;;;4175927;28;20059;-59
2022/11/27 12:22:42;;;;;;;0.10;0.10;;;19.20;65.80;;;;;;4177579;28;20058;-59
2022/11/27 12:25:32;;;;;;;0.35;0.35;;;19.30;65.70;;;;;;4176826;28;20191;-59
2022/11/27 12:28:37;;;;;;;0.30;0.30;;;19.30;65.90;;;;;;4189687;28;20043;-59
2022/11/27 12:31:33;;;;;;;0.00;0.00;;;19.40;65.90;;;;;;4189360;28;20379;-59
2022/11/27 12:34:28;;;;;;;0.10;0.10;;;19.40;66.10;;;;;;4183534;28;20614;-59
2022/11/27 12:37:22;;;;;;;0.30;0.30;;;19.50;66.10;;;;;;4174771;28;20079;-59
2022/11/27 12:40:32;;;;;;;0.00;0.00;;;19.50;66.10;;;;;;4177508;28;20140;-58
2022/11/27 12:43:23;;;;;;;9.93;1.30;;;19.60;65.90;;;;;;4189591;28;20245;-59
2022/11/27 12:46:10;;;;;;;0.43;0.43;;;19.50;66.10;;;;;;4185145;28;20051;-59
2022/11/27 12:48:56;;;;;;;0.00;0.00;;;19.50;66.20;;;;;;4189713;28;20059;-59
2022/11/27 12:51:43;;;;;;;0.00;0.00;;;19.50;66.70;;;;;;4183221;28;20146;-59
2022/11/27 12:54:31;;;;;;;0.35;0.35;;;19.40;66.70;;;;;;4173832;28;20098;-59
2022/11/27 12:57:18;;;;;;;0.20;0.20;;;19.40;66.60;;;;;;4181648;28;20499;-59
2022/11/27 13:00:03;;;;;;;0.00;0.00;;;19.40;66.50;;;;;;4173365;28;20056;-59
2022/11/27 13:02:50;;;;;;;0.00;0.00;;;19.50;66.70;;;;;;4173942;28;20111;-59
2022/11/27 13:05:39;;;;;;;0.10;0.10;;;19.50;66.80;;;;;;4178432;28;20479;-59
2022/11/27 13:08:28;;;;;;;0.03;0.03;;;19.50;66.50;;;;;;4177071;28;20137;-59
2022/11/27 13:11:12;;;;;;;1.20;1.13;;;19.50;66.70;;;;;;4174326;28;20063;-59
2022/11/27 13:13:59;;;;;;;0.00;0.00;;;19.60;66.80;;;;;;4174106;28;20071;-59
2022/11/27 13:16:45;;;;;;;0.00;0.00;;;19.60;68.30;;;;;;4172798;28;20056;-59
2022/11/27 13:19:31;;;;;;;1.23;0.68;;;19.60;67.80;;;;;;4187997;28;20079;-59
2022/11/27 13:22:18;;;;;;;0.00;0.00;;;19.60;67.80;;;;;;4174706;28;20066;-59
2022/11/27 13:25:02;;;;;;;0.22;0.22;;;19.70;68.10;;;;;;4173798;28;20122;-59
2022/11/27 13:27:47;;;;;;;0.00;0.00;;;19.70;67.90;;;;;;4175182;28;20068;-59
2022/11/27 13:30:32;;;;;;;0.00;0.00;;;19.70;67.90;;;;;;4173571;28;20194;-59
2022/11/27 13:33:26;;;;;;;0.10;0.10;;;19.60;68.20;;;;;;4189170;28;20055;-59
2022/11/27 13:36:18;;;;;;;0.32;0.32;;;19.60;68.40;;;;;;4174172;28;20159;-58
2022/11/27 13:39:01;;;;;;;0.00;0.00;;;19.60;68.40;;;;;;4173648;28;20098;-59
2022/11/27 13:41:43;;;;;;;0.00;0.00;;;19.60;68.40;;;;;;4171350;28;20056;-59
2022/11/27 13:44:27;;;;;;;0.00;0.00;;;19.70;68.40;;;;;;4187601;28;21680;-59
2022/11/27 13:47:12;;;;;;;0.00;0.00;;;19.70;68.40;;;;;;4178677;28;20051;-59
2022/11/27 13:50:02;;;;;;;0.10;0.10;;;19.70;68.40;;;;;;4180063;28;20135;-59
2022/11/27 13:52:56;;;;;;;0.00;0.00;;;19.60;68.90;;;;;;4160615;28;20060;-58
2022/11/27 13:55:40;;;;;;;0.00;0.00;;;19.60;69.00;;;;;;4191937;28;20059;-59
2022/11/27 13:58:31;;;;;;;0.20;0.20;;;19.60;69.10;;;;;;4182205;28;20048;-57
2022/11/27 14:01:16;;;;;;;0.00;0.00;;;19.60;69.30;;;;;;4171682;28;20130;-59
2022/11/27 14:04:07;;;;;;;7.88;1.52;;;19.60;69.30;;;;;;4188644;28;20071;-59
2022/11/27 14:06:52;;;;;;;;;;;19.60;69.90;;;;;;4180517;28;20068;-58
2022/11/27 14:09:36;;;;;;;1.55;0.55;;;19.50;69.90;;;;;;4186672;28;19935;-59
2022/11/27 14:12:22;;;;;;;0.00;0.00;;;19.50;70.20;;;;;;4175175;28;20075;-59
2022/11/27 14:15:08;;;;;;;1.60;0.63;;;19.40;70.40;;;;;;4172872;28;20167;-59
2022/11/27 14:17:51;;;;;;;0.00;0.00;;;19.30;70.70;;;;;;4174377;28;20067;-59